Time;durP1;ratioP1;P1;durP2;ratioP2;P2;SDS_P1;SDS_P2;PMS_P1;PMS_P2;Temp;Humidity;BMP_temperature;BMP_pressure;BME280_temperature;BME280_humidity;BME280_pressure;Samples;Min_cycle;Max_cycle;Signal;HPM_P1;HPM_P2
2022/06/12 00:01:01;;;;;;;6.93;3.40;;;19.50;99.90;;;;;;4930103;29;20278;-74
2022/06/12 00:03:28;;;;;;;4.73;3.10;;;19.50;99.90;;;;;;4939573;29;20660;-73
2022/06/12 00:05:56;;;;;;;5.20;3.10;;;19.30;99.90;;;;;;4935721;29;20199;-73
2022/06/12 00:08:24;;;;;;;3.47;3.17;;;19.40;99.90;;;;;;4931717;29;20214;-73
2022/06/12 00:10:54;;;;;;;6.43;3.03;;;19.40;99.90;;;;;;4920819;29;20231;-75
2022/06/12 00:13:43;;;;;;;4.80;2.87;;;19.50;99.90;;;;;;4933034;29;20195;-71
2022/06/12 00:16:11;;;;;;;3.53;2.80;;;19.50;99.90;;;;;;4945474;28;20195;-72
2022/06/12 00:18:38;;;;;;;5.40;3.03;;;19.60;99.90;;;;;;4931351;29;20271;-73
2022/06/12 00:21:10;;;;;;;4.23;2.60;;;19.70;99.90;;;;;;4937962;29;20629;-72
2022/06/12 00:24:00;;;;;;;3.53;2.83;;;19.70;99.90;;;;;;4933788;29;20214;-71
2022/06/12 00:26:31;;;;;;;4.33;2.80;;;19.70;99.90;;;;;;4941836;28;20206;-72
2022/06/12 00:29:19;;;;;;;5.97;2.30;;;19.80;99.90;;;;;;4940556;28;20206;-72
2022/06/12 00:31:53;;;;;;;3.47;2.43;;;19.80;99.90;;;;;;4933860;29;20289;-73
2022/06/12 00:34:23;;;;;;;5.07;2.70;;;19.80;99.90;;;;;;4927941;29;20206;-72
2022/06/12 00:36:50;;;;;;;4.30;2.50;;;19.80;99.90;;;;;;4938027;29;20226;-73
2022/06/12 00:39:16;;;;;;;3.17;2.20;;;19.80;99.90;;;;;;4943782;28;20198;-72
2022/06/12 00:41:46;;;;;;;3.87;2.70;;;19.80;99.90;;;;;;4933633;28;20226;-73
2022/06/12 00:44:16;;;;;;;4.30;2.63;;;19.80;99.90;;;;;;4934019;29;20190;-73
2022/06/12 00:46:46;;;;;;;4.17;2.60;;;19.80;99.90;;;;;;4924260;29;20199;-73
2022/06/12 00:49:25;;;;;;;5.87;2.90;;;19.80;99.90;;;;;;4930719;29;20199;-74
2022/06/12 00:51:58;;;;;;;5.23;2.40;;;19.80;99.90;;;;;;4935247;29;20225;-72
2022/06/12 00:54:25;;;;;;;5.07;2.43;;;19.80;99.90;;;;;;4939312;28;20194;-74
2022/06/12 00:56:57;;;;;;;4.47;2.60;;;19.80;99.90;;;;;;4928017;29;20235;-72
2022/06/12 00:59:40;;;;;;;3.20;2.50;;;19.80;99.90;;;;;;4933619;28;20622;-72
2022/06/12 01:02:11;;;;;;;3.73;2.20;;;19.70;99.90;;;;;;4940747;29;20214;-72
2022/06/12 01:07:28;;;;;;;5.20;2.30;;;19.80;99.90;;;;;;4932366;28;20670;-72
2022/06/12 01:10:01;;;;;;;4.30;2.30;;;19.70;99.90;;;;;;4942044;28;20203;-73
2022/06/12 01:12:35;;;;;;;3.63;2.30;;;19.80;99.90;;;;;;4945583;28;20218;-72
2022/06/12 01:15:14;;;;;;;5.93;2.57;;;19.70;99.90;;;;;;4936774;29;20199;-72
2022/06/12 01:17:42;;;;;;;3.63;2.30;;;19.80;99.90;;;;;;4929089;29;20233;-72
2022/06/12 01:20:14;;;;;;;2.40;2.10;;;19.70;99.90;;;;;;4942424;29;20190;-72
2022/06/12 01:22:50;;;;;;;3.80;2.30;;;19.50;99.90;;;;;;4935052;28;20207;-73
2022/06/12 01:25:32;;;;;;;3.53;2.03;;;19.30;99.90;;;;;;4933577;28;20209;-73
2022/06/12 01:28:27;;;;;;;2.40;2.20;;;19.30;99.90;;;;;;4928892;29;20199;-72
2022/06/12 01:31:18;;;;;;;2.87;1.93;;;19.20;99.90;;;;;;4932119;28;20227;-73
2022/06/12 01:34:15;;;;;;;2.83;2.20;;;19.00;99.90;;;;;;4945670;29;20203;-73
2022/06/12 01:36:48;;;;;;;3.20;2.17;;;19.00;99.90;;;;;;4907380;29;20232;-73
2022/06/12 01:39:38;;;;;;;3.53;2.30;;;18.80;99.90;;;;;;4944622;29;20194;-72
2022/06/12 01:42:22;;;;;;;2.80;2.13;;;18.80;99.90;;;;;;4938389;29;20230;-73
2022/06/12 01:44:54;;;;;;;3.80;2.20;;;18.80;99.90;;;;;;4928692;28;20920;-71
2022/06/12 01:47:35;;;;;;;4.97;2.23;;;18.70;99.90;;;;;;4920297;29;20323;-72
2022/06/12 01:50:17;;;;;;;4.03;2.10;;;18.90;99.90;;;;;;4924407;29;20207;-73
2022/06/12 01:53:11;;;;;;;3.73;2.00;;;18.90;99.90;;;;;;4921755;29;20210;-72
2022/06/12 01:55:53;;;;;;;3.80;2.00;;;18.80;99.90;;;;;;4949918;28;20610;-74
2022/06/12 01:58:37;;;;;;;5.60;2.30;;;18.60;99.90;;;;;;4924396;29;20214;-73
2022/06/12 02:01:21;;;;;;;4.33;2.20;;;18.70;99.90;;;;;;4925826;29;20214;-72
2022/06/12 02:03:59;;;;;;;3.13;2.10;;;18.70;99.90;;;;;;4925434;29;20261;-72
2022/06/12 02:06:34;;;;;;;4.00;2.13;;;18.70;99.90;;;;;;4922727;29;20207;-73
2022/06/12 02:09:18;;;;;;;6.10;2.23;;;18.50;99.90;;;;;;4924176;29;20674;-74
2022/06/12 02:14:46;;;;;;;3.83;2.20;;;18.20;99.90;;;;;;4925794;29;20206;-71
2022/06/12 02:17:19;;;;;;;6.43;2.20;;;18.20;99.90;;;;;;4922951;29;20225;-74
2022/06/12 02:19:48;;;;;;;3.70;2.37;;;18.10;99.90;;;;;;4919037;29;20686;-73
2022/06/12 02:22:22;;;;;;;4.70;2.17;;;17.90;99.90;;;;;;4924697;29;20249;-72
2022/06/12 02:25:03;;;;;;;3.40;2.17;;;18.00;99.90;;;;;;4919873;29;20581;-73
2022/06/12 02:27:33;;;;;;;3.47;2.10;;;18.10;99.90;;;;;;4922937;28;20199;-72
2022/06/12 02:30:24;;;;;;;5.00;2.20;;;18.00;99.90;;;;;;4924125;29;20203;-73
2022/06/12 02:33:06;;;;;;;3.33;2.40;;;17.90;99.90;;;;;;4920731;29;20212;-72
2022/06/12 02:35:42;;;;;;;3.13;2.27;;;18.00;99.90;;;;;;4923323;29;20202;-72
2022/06/12 02:38:15;;;;;;;4.27;2.33;;;18.20;99.90;;;;;;4924162;29;20607;-72
2022/06/12 02:40:49;;;;;;;3.67;2.40;;;18.10;99.90;;;;;;4920687;29;20222;-73
2022/06/12 02:43:24;;;;;;;4.13;2.20;;;18.20;99.90;;;;;;4924885;29;20202;-74
2022/06/12 02:46:02;;;;;;;2.43;1.73;;;18.40;99.90;;;;;;4919501;29;20235;-72
2022/06/12 02:48:30;;;;;;;4.13;2.30;;;18.40;99.90;;;;;;4955004;28;20221;-73
2022/06/12 02:51:27;;;;;;;4.60;2.20;;;18.40;99.90;;;;;;4918869;29;20729;-72
2022/06/12 02:54:22;;;;;;;3.47;2.20;;;18.50;99.90;;;;;;4921588;29;20205;-72
2022/06/12 02:57:22;;;;;;;2.90;1.80;;;18.60;99.90;;;;;;4921606;29;20208;-73
2022/06/12 02:59:58;;;;;;;4.00;2.10;;;18.50;99.90;;;;;;4920826;29;20211;-74
2022/06/12 03:02:44;;;;;;;4.17;2.13;;;18.40;99.90;;;;;;4919117;29;20291;-73
2022/06/12 03:05:20;;;;;;;5.17;2.47;;;18.40;99.90;;;;;;4922645;29;20195;-73
2022/06/12 03:08:02;;;;;;;3.23;2.20;;;18.20;99.90;;;;;;4919571;29;20204;-72
2022/06/12 03:10:36;;;;;;;3.17;2.27;;;18.10;99.90;;;;;;4919388;29;20291;-72
2022/06/12 03:13:06;;;;;;;3.40;2.50;;;17.90;99.90;;;;;;4924908;29;20214;-73
2022/06/12 03:15:47;;;;;;;4.83;2.60;;;17.70;99.90;;;;;;4924389;29;20202;-73
2022/06/12 03:18:38;;;;;;;3.53;2.40;;;17.60;99.90;;;;;;4923632;29;20214;-73
2022/06/12 03:21:13;;;;;;;5.60;2.67;;;17.40;99.90;;;;;;4924749;29;20219;-72
2022/06/12 03:23:55;;;;;;;4.73;2.90;;;17.30;99.90;;;;;;4920832;29;20569;-74
2022/06/12 03:27:03;;;;;;;5.67;2.90;;;17.20;99.90;;;;;;4921067;29;20203;-73
2022/06/12 03:29:41;;;;;;;4.30;2.70;;;17.10;99.90;;;;;;4919474;29;20199;-72
2022/06/12 03:32:18;;;;;;;6.00;2.87;;;17.00;99.90;;;;;;4924487;29;20219;-73
2022/06/12 03:35:04;;;;;;;4.60;3.10;;;17.00;99.90;;;;;;4921931;29;20207;-73
2022/06/12 03:37:38;;;;;;;5.27;3.40;;;16.90;99.90;;;;;;4922037;29;20218;-74
2022/06/12 03:40:07;;;;;;;6.73;3.63;;;16.80;99.90;;;;;;4922787;29;20200;-72
2022/06/12 03:42:45;;;;;;;4.93;3.87;;;16.90;99.90;;;;;;4926017;29;20199;-72
2022/06/12 03:45:38;;;;;;;6.60;3.47;;;16.90;99.90;;;;;;4922932;29;20672;-73
2022/06/12 03:48:24;;;;;;;6.20;4.03;;;17.10;99.90;;;;;;4918701;29;20206;-72
2022/06/12 03:51:05;;;;;;;5.57;3.83;;;17.00;99.90;;;;;;4919681;29;20223;-73
2022/06/12 03:53:38;;;;;;;7.17;3.73;;;17.00;99.90;;;;;;4917548;29;20207;-72
2022/06/12 03:59:50;;;;;;;5.23;3.50;;;17.10;99.90;;;;;;4917243;29;20234;-72
2022/06/12 04:02:21;;;;;;;7.40;3.87;;;17.10;99.90;;;;;;4914903;29;20262;-72
2022/06/12 04:04:50;;;;;;;7.43;3.90;;;17.40;99.90;;;;;;4947918;28;20235;-73
2022/06/12 04:07:18;;;;;;;5.10;3.17;;;17.40;99.90;;;;;;4920549;29;20199;-72
2022/06/12 04:09:48;;;;;;;5.13;3.70;;;17.30;99.90;;;;;;4918609;29;20211;-73
2022/06/12 04:12:25;;;;;;;5.30;3.87;;;17.20;99.90;;;;;;4922744;29;20215;-73
2022/06/12 04:15:11;;;;;;;5.37;3.90;;;17.20;99.90;;;;;;4916461;29;20691;-74
2022/06/12 04:17:39;;;;;;;6.90;3.63;;;17.20;99.90;;;;;;4923278;29;20219;-73
2022/06/12 04:20:15;;;;;;;5.17;3.43;;;17.20;99.90;;;;;;4922878;29;20220;-72
2022/06/12 04:23:06;;;;;;;4.73;4.00;;;17.20;99.90;;;;;;4921307;29;20218;-72
2022/06/12 04:25:45;;;;;;;5.30;4.00;;;17.30;99.90;;;;;;4923088;29;20259;-73
2022/06/12 04:28:31;;;;;;;4.30;3.40;;;17.40;99.90;;;;;;4921725;29;20270;-72
2022/06/12 04:31:00;;;;;;;5.60;3.50;;;17.50;99.90;;;;;;4921614;29;20731;-70
2022/06/12 04:33:55;;;;;;;8.60;4.00;;;17.50;99.90;;;;;;4921372;29;20213;-72
2022/06/12 04:36:22;;;;;;;5.27;3.70;;;17.60;99.90;;;;;;4925490;29;20467;-73
2022/06/12 04:38:49;;;;;;;6.90;3.70;;;17.70;99.90;;;;;;4916213;29;20224;-74
2022/06/12 04:41:30;;;;;;;6.90;4.03;;;17.80;99.90;;;;;;4922910;29;20214;-72
2022/06/12 04:43:57;;;;;;;4.70;3.40;;;18.00;99.90;;;;;;4938030;28;20215;-72
2022/06/12 04:46:25;;;;;;;6.93;3.70;;;18.10;99.90;;;;;;4921215;29;20604;-73
2022/06/12 04:48:55;;;;;;;6.67;4.40;;;18.00;99.90;;;;;;4922512;29;20683;-72
2022/06/12 04:51:23;;;;;;;6.00;3.80;;;18.00;99.90;;;;;;4927691;29;20226;-73
2022/06/12 04:53:50;;;;;;;5.30;4.07;;;18.00;99.90;;;;;;4921686;29;20226;-73
2022/06/12 04:56:18;;;;;;;8.53;4.50;;;18.10;99.90;;;;;;4928489;29;20202;-72
2022/06/12 04:58:45;;;;;;;6.90;4.30;;;18.30;99.90;;;;;;4919867;29;20243;-72
2022/06/12 05:01:12;;;;;;;6.70;4.07;;;18.30;99.90;;;;;;4930427;29;20222;-72
2022/06/12 05:03:39;;;;;;;8.63;4.90;;;18.30;99.90;;;;;;4923700;29;20203;-72
2022/06/12 05:06:06;;;;;;;7.30;4.83;;;18.30;99.90;;;;;;4923210;29;20243;-72
2022/06/12 05:08:34;;;;;;;8.17;4.47;;;18.40;99.90;;;;;;4924599;29;20199;-73
2022/06/12 05:11:01;;;;;;;9.73;4.80;;;18.50;99.90;;;;;;4921720;29;20224;-74
2022/06/12 05:13:28;;;;;;;9.10;5.10;;;18.60;99.90;;;;;;4925363;29;20206;-73
2022/06/12 05:15:55;;;;;;;7.23;4.50;;;18.70;99.90;;;;;;4921759;29;20207;-73
2022/06/12 05:18:22;;;;;;;5.97;4.00;;;18.70;99.90;;;;;;4925743;29;20318;-73
2022/06/12 05:20:49;;;;;;;6.37;3.70;;;18.80;99.90;;;;;;4922851;29;20223;-72
2022/06/12 05:23:20;;;;;;;7.13;3.60;;;18.90;99.90;;;;;;4925007;29;20202;-72
2022/06/12 05:25:47;;;;;;;5.60;3.47;;;19.00;99.90;;;;;;4922609;29;20199;-72
2022/06/12 05:28:16;;;;;;;5.47;2.97;;;19.20;99.90;;;;;;4922842;29;20214;-72
2022/06/12 05:30:43;;;;;;;8.40;3.33;;;19.40;99.90;;;;;;4931739;28;20228;-74
2022/06/12 05:33:11;;;;;;;5.35;3.55;;;19.60;99.90;;;;;;4922875;29;20626;-72
2022/06/12 05:35:40;;;;;;;4.47;3.07;;;19.80;99.90;;;;;;4922629;28;20214;-72
2022/06/12 05:38:09;;;;;;;4.82;3.00;;;19.90;99.90;;;;;;4926324;29;20908;-73
2022/06/12 05:40:38;;;;;;;6.57;3.30;;;19.90;99.90;;;;;;4920363;29;20231;-73
2022/06/12 05:43:06;;;;;;;6.65;3.33;;;19.80;99.90;;;;;;4925042;29;20198;-73
2022/06/12 05:45:33;;;;;;;4.72;3.30;;;19.80;99.90;;;;;;4925811;28;20226;-73
2022/06/12 05:48:06;;;;;;;5.20;3.28;;;19.90;99.90;;;;;;4921894;29;20218;-72
2022/06/12 05:50:37;;;;;;;8.75;3.63;;;20.10;99.90;;;;;;4933175;29;20219;-72
2022/06/12 05:53:04;;;;;;;4.80;3.45;;;20.30;99.90;;;;;;4933981;29;20702;-72
2022/06/12 05:55:30;;;;;;;4.45;3.15;;;20.20;99.90;;;;;;4934181;29;20681;-72
2022/06/12 05:57:57;;;;;;;8.63;3.38;;;20.30;99.90;;;;;;4933544;28;20707;-73
2022/06/12 06:00:27;;;;;;;7.28;3.92;;;20.30;99.90;;;;;;4933942;29;20722;-72
2022/06/12 06:02:54;;;;;;;9.48;4.00;;;20.40;99.90;;;;;;4934680;28;20627;-73
2022/06/12 06:05:22;;;;;;;5.68;3.00;;;20.40;99.90;;;;;;4931799;29;20238;-73
2022/06/12 06:07:49;;;;;;;8.18;3.50;;;20.50;99.90;;;;;;4930520;28;20218;-72
2022/06/12 06:10:23;;;;;;;4.93;2.97;;;20.60;99.90;;;;;;4934358;29;20203;-73
2022/06/12 06:12:49;;;;;;;7.45;3.33;;;20.70;99.90;;;;;;4930932;29;20490;-73
2022/06/12 06:15:16;;;;;;;6.95;3.30;;;20.80;99.90;;;;;;4932647;29;20282;-73
2022/06/12 06:17:43;;;;;;;5.57;3.08;;;20.90;99.90;;;;;;4931794;29;20214;-73
2022/06/12 06:20:15;;;;;;;5.28;3.05;;;21.10;99.90;;;;;;4931320;29;20199;-74
2022/06/12 06:22:41;;;;;;;5.68;2.75;;;21.40;99.90;;;;;;4927303;29;20215;-73
2022/06/12 06:25:10;;;;;;;6.85;3.00;;;21.60;99.90;;;;;;4925500;29;20617;-74
2022/06/12 06:27:36;;;;;;;6.20;3.45;;;21.70;99.90;;;;;;4930586;29;20198;-75
2022/06/12 06:30:05;;;;;;;6.25;2.92;;;21.50;99.90;;;;;;4932959;29;20195;-73
2022/06/12 06:32:32;;;;;;;6.18;2.83;;;21.50;99.90;;;;;;4927759;29;20579;-73
2022/06/12 06:35:00;;;;;;;4.75;2.50;;;21.60;99.90;;;;;;4929791;29;20202;-73
2022/06/12 06:37:26;;;;;;;5.07;2.70;;;21.60;99.90;;;;;;4928707;29;20203;-73
2022/06/12 06:39:53;;;;;;;5.80;2.45;;;21.70;99.90;;;;;;4929584;29;20230;-73
2022/06/12 06:42:20;;;;;;;5.75;2.72;;;21.70;99.90;;;;;;4930586;29;20214;-73
2022/06/12 06:47:32;;;;;;;5.50;2.25;;;21.90;99.90;;;;;;4930617;29;20195;-73
2022/06/12 06:49:58;;;;;;;6.18;2.58;;;21.90;99.90;;;;;;4929692;29;20230;-70
2022/06/12 06:52:25;;;;;;;6.22;2.30;;;22.00;99.90;;;;;;4929476;29;20230;-73
2022/06/12 06:54:52;;;;;;;3.72;2.28;;;22.20;99.90;;;;;;4931319;29;20229;-73
2022/06/12 06:57:18;;;;;;;5.80;2.63;;;22.40;99.90;;;;;;4932202;29;20199;-73
2022/06/12 06:59:45;;;;;;;5.32;2.25;;;22.60;99.90;;;;;;4926426;29;20222;-73
2022/06/12 07:02:12;;;;;;;6.18;2.10;;;22.80;99.90;;;;;;4935332;29;20214;-73
2022/06/12 07:04:39;;;;;;;3.10;1.73;;;23.00;99.90;;;;;;4928190;29;20194;-73
2022/06/12 07:07:08;;;;;;;4.53;2.25;;;23.50;99.90;;;;;;4930603;29;20198;-71
2022/06/12 07:09:37;;;;;;;6.63;2.13;;;24.40;99.90;;;;;;4929024;29;20214;-73
2022/06/12 07:12:04;;;;;;;7.43;2.22;;;25.50;99.90;;;;;;4927631;29;20331;-75
2022/06/12 07:14:31;;;;;;;6.97;2.17;;;26.10;99.90;;;;;;4931694;29;20577;-74
2022/06/12 07:16:58;;;;;;;4.60;2.03;;;26.60;99.90;;;;;;4930146;29;20199;-75
2022/06/12 07:19:26;;;;;;;5.55;1.92;;;27.20;99.90;;;;;;4928690;29;20223;-74
2022/06/12 07:21:53;;;;;;;6.45;1.63;;;27.60;99.90;;;;;;4931835;29;20234;-74
2022/06/12 07:24:26;;;;;;;4.78;1.70;;;28.40;99.90;;;;;;4930466;29;20199;-74
2022/06/12 07:26:53;;;;;;;7.57;2.15;;;29.10;99.90;;;;;;4931490;29;20605;-74
2022/06/12 07:29:21;;;;;;;3.53;1.98;;;29.10;99.90;;;;;;4926390;29;20203;-74
2022/06/12 07:31:48;;;;;;;3.95;1.98;;;29.00;99.90;;;;;;4931308;29;20219;-74
2022/06/12 07:34:16;;;;;;;4.25;1.90;;;28.50;99.90;;;;;;4928813;29;20202;-74
2022/06/12 07:36:48;;;;;;;5.00;1.98;;;28.30;99.90;;;;;;4930657;29;20203;-74
2022/06/12 07:39:19;;;;;;;6.10;2.00;;;28.40;99.90;;;;;;4928596;29;20229;-74
2022/06/12 07:41:48;;;;;;;4.30;2.03;;;28.60;99.90;;;;;;4928022;29;20312;-74
2022/06/12 07:44:17;;;;;;;3.63;1.70;;;28.60;99.90;;;;;;4931205;29;20199;-74
2022/06/12 07:46:45;;;;;;;5.57;2.03;;;28.60;99.90;;;;;;4930767;29;20285;-74
2022/06/12 07:49:11;;;;;;;5.80;2.13;;;28.10;99.90;;;;;;4931842;29;20735;-74
2022/06/12 07:51:38;;;;;;;3.33;1.70;;;28.10;99.90;;;;;;4916989;29;20261;-74
2022/06/12 07:54:05;;;;;;;4.95;1.70;;;28.30;99.90;;;;;;4918567;29;20203;-74
2022/06/12 07:56:32;;;;;;;5.25;2.00;;;28.50;99.90;;;;;;4918059;29;20215;-74
2022/06/12 07:58:58;;;;;;;4.60;1.80;;;28.80;99.90;;;;;;4919973;29;20411;-74
2022/06/12 08:01:27;;;;;;;3.63;1.85;;;28.90;99.90;;;;;;4918602;29;20215;-71
2022/06/12 08:03:54;;;;;;;3.05;1.92;;;28.80;99.90;;;;;;4917178;29;20294;-74
2022/06/12 08:06:22;;;;;;;5.05;2.00;;;28.20;99.90;;;;;;4925805;29;20271;-74
2022/06/12 08:08:49;;;;;;;3.90;2.03;;;28.20;99.90;;;;;;4924298;29;20203;-75
2022/06/12 08:11:17;;;;;;;3.50;1.60;;;28.00;99.90;;;;;;4922398;29;20223;-74
2022/06/12 08:13:44;;;;;;;4.70;2.00;;;28.10;99.90;;;;;;4916753;29;20215;-73
2022/06/12 08:16:10;;;;;;;2.88;1.90;;;28.20;99.90;;;;;;4922791;29;20254;-72
2022/06/12 08:18:37;;;;;;;3.83;2.03;;;28.20;99.90;;;;;;4918972;29;20233;-72
2022/06/12 08:21:09;;;;;;;4.38;1.85;;;27.80;99.90;;;;;;4950496;28;20234;-74
2022/06/12 08:23:44;;;;;;;3.15;1.90;;;27.90;99.90;;;;;;4919038;29;20215;-73
2022/06/12 08:26:10;;;;;;;3.13;1.90;;;28.30;99.90;;;;;;4922450;29;20199;-72
2022/06/12 08:28:45;;;;;;;3.65;1.90;;;28.60;99.90;;;;;;4913249;29;20206;-73
2022/06/12 08:31:14;;;;;;;4.65;2.15;;;28.90;99.90;;;;;;4922845;29;20223;-74
2022/06/12 08:33:44;;;;;;;8.07;2.75;;;29.10;99.90;;;;;;4918095;29;20231;-73
2022/06/12 08:36:12;;;;;;;3.13;1.80;;;29.00;99.90;;;;;;4918940;29;20675;-74
2022/06/12 08:38:39;;;;;;;4.13;1.85;;;29.00;99.90;;;;;;4946593;28;20223;-75
2022/06/12 08:41:28;;;;;;;3.35;1.80;;;29.00;99.90;;;;;;4921149;29;20221;-77
2022/06/12 08:44:10;;;;;;;4.32;1.95;;;28.90;99.90;;;;;;4919697;29;20263;-76
2022/06/12 08:46:45;;;;;;;3.85;1.70;;;28.60;99.90;;;;;;4919192;29;20195;-74
2022/06/12 08:49:35;;;;;;;5.50;2.30;;;28.60;99.90;;;;;;4912135;29;21588;-75
2022/06/12 08:52:32;;;;;;;2.83;1.80;;;28.60;99.90;;;;;;4920383;29;20234;-77
2022/06/12 08:55:12;;;;;;;3.65;1.80;;;28.40;99.90;;;;;;4918424;29;20199;-76
2022/06/12 08:58:06;;;;;;;5.10;2.03;;;28.40;99.90;;;;;;4918621;29;20213;-76
2022/06/12 09:00:36;;;;;;;4.22;1.90;;;28.50;99.90;;;;;;4938410;28;20237;-78
2022/06/12 09:03:05;;;;;;;3.97;2.03;;;28.90;99.90;;;;;;4917690;29;20199;-78
2022/06/12 09:05:40;;;;;;;3.08;1.90;;;28.80;99.90;;;;;;4922703;29;20700;-79
2022/06/12 09:08:15;;;;;;;6.63;2.38;;;29.10;99.90;;;;;;4919044;29;20199;-78
2022/06/12 09:10:48;;;;;;;3.30;1.95;;;29.10;99.90;;;;;;4914840;29;20227;-78
2022/06/12 09:13:34;;;;;;;3.60;2.00;;;29.10;99.90;;;;;;4915998;29;20195;-77
2022/06/12 09:16:08;;;;;;;2.67;1.98;;;28.90;99.90;;;;;;4916700;29;20671;-78
2022/06/12 09:18:51;;;;;;;4.03;2.10;;;28.70;99.90;;;;;;4919839;29;20207;-78
2022/06/12 09:21:24;;;;;;;3.90;1.90;;;28.80;99.90;;;;;;4922271;29;20218;-78
2022/06/12 09:23:57;;;;;;;2.78;1.70;;;28.50;99.90;;;;;;4916239;29;20270;-78
2022/06/12 09:26:36;;;;;;;2.63;1.83;;;28.40;99.90;;;;;;4923735;29;20227;-77
2022/06/12 09:29:21;;;;;;;5.05;1.95;;;28.70;99.90;;;;;;4915962;29;20203;-77
2022/06/12 09:32:24;;;;;;;4.43;1.83;;;28.70;99.90;;;;;;4920263;29;20247;-76
2022/06/12 09:35:27;;;;;;;5.85;1.75;;;28.80;99.90;;;;;;4914216;29;20668;-79
2022/06/12 09:38:20;;;;;;;3.72;1.77;;;28.70;99.90;;;;;;4919199;29;20635;-77
2022/06/12 09:41:12;;;;;;;2.95;1.95;;;28.00;99.90;;;;;;4922998;29;20223;-77
2022/06/12 09:43:57;;;;;;;2.53;1.73;;;28.30;99.90;;;;;;4919049;29;20203;-77
2022/06/12 09:46:33;;;;;;;4.30;1.92;;;28.50;99.90;;;;;;4923599;29;20199;-77
2022/06/12 09:49:46;;;;;;;3.65;1.70;;;28.80;99.90;;;;;;4922041;29;20687;-77
2022/06/12 09:52:40;;;;;;;3.55;1.70;;;29.00;99.90;;;;;;4925707;29;20230;-77
2022/06/12 09:55:26;;;;;;;3.30;1.75;;;29.20;99.90;;;;;;4920339;29;20207;-78
2022/06/12 09:58:06;;;;;;;3.28;1.80;;;29.20;99.90;;;;;;4925081;29;20672;-78
2022/06/12 10:01:02;;;;;;;4.28;1.88;;;29.50;99.90;;;;;;4931339;29;20223;-74
2022/06/12 10:04:14;;;;;;;3.90;1.90;;;29.20;99.90;;;;;;4932832;29;20191;-77
2022/06/12 10:06:46;;;;;;;4.93;1.98;;;29.40;99.90;;;;;;4888638;29;20200;-76
2022/06/12 10:09:24;;;;;;;3.33;1.95;;;29.50;99.90;;;;;;4929082;29;20207;-77
2022/06/12 10:12:15;;;;;;;5.82;2.15;;;29.70;99.90;;;;;;4932619;29;20234;-77
2022/06/12 10:15:08;;;;;;;4.25;2.10;;;29.70;99.90;;;;;;4928814;29;20207;-74
2022/06/12 10:17:52;;;;;;;3.05;1.60;;;29.30;99.90;;;;;;4923882;29;20203;-77
2022/06/12 10:20:34;;;;;;;3.58;1.80;;;28.60;99.90;;;;;;4932968;29;20219;-77
2022/06/12 10:23:01;;;;;;;4.97;1.95;;;28.40;99.90;;;;;;4926742;29;20601;-76
2022/06/12 10:25:42;;;;;;;6.32;2.10;;;28.80;99.90;;;;;;4930083;29;20199;-78
2022/06/12 10:28:15;;;;;;;2.22;1.80;;;28.90;99.90;;;;;;4922856;29;20483;-75
2022/06/12 10:30:44;;;;;;;6.43;2.72;;;28.50;99.90;;;;;;4929642;29;20719;-76
2022/06/12 10:33:24;;;;;;;3.55;2.30;;;28.40;99.90;;;;;;4929233;29;20274;-77
2022/06/12 10:35:54;;;;;;;3.67;2.08;;;28.50;99.90;;;;;;4930739;29;20210;-76
2022/06/12 10:38:23;;;;;;;6.38;2.75;;;28.90;99.90;;;;;;4934714;29;20231;-76
2022/06/12 10:40:54;;;;;;;5.68;2.35;;;29.20;99.90;;;;;;4930643;29;20753;-75
2022/06/12 10:43:36;;;;;;;4.13;2.63;;;29.20;99.90;;;;;;4929012;29;20214;-75
2022/06/12 10:46:15;;;;;;;4.07;2.72;;;29.50;99.90;;;;;;4931098;29;20191;-77
2022/06/12 10:48:54;;;;;;;5.32;2.28;;;29.80;99.90;;;;;;4934071;29;20199;-75
2022/06/12 10:51:35;;;;;;;4.60;2.17;;;29.70;99.90;;;;;;4924778;29;20568;-75
2022/06/12 10:54:17;;;;;;;3.13;1.85;;;29.10;99.90;;;;;;4921680;29;20558;-77
2022/06/12 10:56:47;;;;;;;3.63;2.22;;;29.20;99.90;;;;;;4930016;29;20205;-76
2022/06/12 10:59:34;;;;;;;3.08;2.00;;;29.30;99.90;;;;;;4948148;28;20218;-75
2022/06/12 11:02:01;;;;;;;3.95;2.33;;;29.10;99.90;;;;;;4949341;28;20220;-76
2022/06/12 11:04:52;;;;;;;3.17;2.03;;;29.50;99.90;;;;;;4934215;29;20670;-76
2022/06/12 11:07:49;;;;;;;5.88;1.85;;;29.60;99.90;;;;;;4927837;29;20199;-76
2022/06/12 11:10:31;;;;;;;4.97;2.80;;;29.10;99.90;;;;;;4930547;29;20202;-75
2022/06/12 11:13:10;;;;;;;7.10;2.63;;;29.30;99.90;;;;;;4930823;29;20199;-75
2022/06/12 11:16:02;;;;;;;4.53;1.90;;;29.30;99.90;;;;;;4932553;29;20199;-73
2022/06/12 11:19:00;;;;;;;4.95;1.83;;;29.20;99.90;;;;;;4928729;29;20223;-75
2022/06/12 11:21:32;;;;;;;5.30;2.13;;;29.50;99.90;;;;;;4923133;29;20218;-73
2022/06/12 11:24:16;;;;;;;3.03;2.40;;;29.70;99.90;;;;;;4921464;29;20265;-73
2022/06/12 11:26:57;;;;;;;3.50;1.90;;;29.50;99.90;;;;;;4924771;29;20229;-75
2022/06/12 11:29:45;;;;;;;3.20;1.88;;;29.50;99.90;;;;;;4932535;29;20270;-75
2022/06/12 11:32:37;;;;;;;5.40;2.08;;;29.70;99.90;;;;;;4923237;29;20230;-75
2022/06/12 11:35:51;;;;;;;3.78;2.10;;;30.20;99.90;;;;;;4926713;29;20199;-75
2022/06/12 11:38:52;;;;;;;3.38;2.00;;;30.60;99.90;;;;;;4907330;29;20203;-74
2022/06/12 11:41:37;;;;;;;4.88;2.10;;;30.30;99.90;;;;;;4904140;29;20219;-75
2022/06/12 11:44:17;;;;;;;4.80;1.98;;;30.30;99.90;;;;;;4920105;29;20727;-75
2022/06/12 11:47:09;;;;;;;2.80;1.75;;;29.70;99.90;;;;;;4921099;29;20575;-72
2022/06/12 11:49:51;;;;;;;2.38;1.50;;;29.90;99.90;;;;;;4921648;29;20198;-74
2022/06/12 11:52:25;;;;;;;1.55;1.40;;;29.80;99.90;;;;;;4918750;29;20225;-74
2022/06/12 11:55:13;;;;;;;2.90;1.58;;;29.50;99.90;;;;;;4930322;29;20223;-73
2022/06/12 11:58:02;;;;;;;3.72;2.10;;;29.40;99.90;;;;;;4918684;29;20207;-74
2022/06/12 12:00:42;;;;;;;4.22;1.90;;;29.80;99.90;;;;;;4918954;29;20226;-75
2022/06/12 12:03:53;;;;;;;4.40;1.88;;;30.00;99.90;;;;;;4917023;29;20195;-74
2022/06/12 12:06:28;;;;;;;3.60;1.58;;;30.50;99.90;;;;;;4919167;29;20196;-75
2022/06/12 12:09:13;;;;;;;2.35;1.40;;;30.60;99.90;;;;;;4917778;29;20245;-73
2022/06/12 12:11:56;;;;;;;3.13;1.70;;;30.50;99.90;;;;;;4923874;29;20219;-75
2022/06/12 12:14:27;;;;;;;4.03;1.60;;;30.20;99.90;;;;;;4920413;29;20198;-76
2022/06/12 12:16:59;;;;;;;2.78;1.48;;;30.20;99.90;;;;;;4923894;29;20195;-73
2022/06/12 12:19:32;;;;;;;1.83;1.60;;;29.80;99.90;;;;;;4922200;29;20722;-75
2022/06/12 12:22:12;;;;;;;2.78;1.63;;;29.50;99.90;;;;;;4920819;29;21130;-74
2022/06/12 12:24:49;;;;;;;1.65;1.20;;;29.50;99.90;;;;;;4921863;29;20209;-74
2022/06/12 12:27:33;;;;;;;3.10;1.45;;;29.40;99.90;;;;;;4919596;29;20198;-74
2022/06/12 12:30:03;;;;;;;3.15;1.30;;;29.10;99.90;;;;;;4922636;29;20213;-74
2022/06/12 12:32:33;;;;;;;3.28;1.67;;;29.30;99.90;;;;;;4920348;29;20599;-74
2022/06/12 12:35:00;;;;;;;2.53;1.20;;;29.20;99.90;;;;;;4919204;29;20211;-74
2022/06/12 12:43:18;;;;;;;4.20;1.50;;;29.40;99.90;;;;;;4919696;29;20203;-75
2022/06/12 12:45:45;;;;;;;3.15;1.30;;;29.40;99.90;;;;;;4915029;29;20207;-74
2022/06/12 12:48:14;;;;;;;2.55;1.40;;;29.30;99.90;;;;;;4921436;29;20203;-74
2022/06/12 12:51:07;;;;;;;3.72;1.52;;;29.30;99.90;;;;;;4920393;29;20219;-74
2022/06/12 12:53:38;;;;;;;2.55;1.30;;;29.30;99.50;;;;;;4918299;29;20204;-74
2022/06/12 12:56:14;;;;;;;1.40;1.10;;;29.10;98.80;;;;;;4919213;29;20207;-74
2022/06/12 12:58:55;;;;;;;3.15;1.30;;;28.90;98.00;;;;;;4918626;29;20686;-75
2022/06/12 13:01:27;;;;;;;3.03;1.58;;;29.00;98.00;;;;;;4916944;29;20569;-74
2022/06/12 13:04:21;;;;;;;1.98;1.30;;;29.10;97.70;;;;;;4920727;29;20219;-74
2022/06/12 13:07:07;;;;;;;2.30;1.40;;;28.90;98.90;;;;;;4925984;29;20195;-75
2022/06/12 13:09:52;;;;;;;2.78;1.40;;;29.00;98.30;;;;;;4922805;29;20464;-72
2022/06/12 13:12:43;;;;;;;1.98;1.40;;;29.20;99.00;;;;;;4922357;29;20215;-74
2022/06/12 13:15:38;;;;;;;1.70;1.17;;;29.40;97.10;;;;;;4922977;29;20719;-74
2022/06/12 13:18:23;;;;;;;2.17;1.40;;;29.30;97.90;;;;;;4924443;29;20275;-74
2022/06/12 13:21:08;;;;;;;1.52;1.15;;;29.40;96.80;;;;;;4922011;29;20227;-75
2022/06/12 13:23:54;;;;;;;1.85;1.42;;;29.50;98.00;;;;;;4927406;29;20202;-74
2022/06/12 13:26:24;;;;;;;2.88;1.48;;;29.50;97.20;;;;;;4924781;29;20205;-75
2022/06/12 13:28:57;;;;;;;2.92;1.13;;;29.60;97.30;;;;;;4920345;29;20199;-74
2022/06/12 13:31:23;;;;;;;1.58;1.10;;;29.60;97.70;;;;;;4923020;29;20278;-73
2022/06/12 13:33:54;;;;;;;2.53;1.33;;;29.70;96.90;;;;;;4922637;29;20231;-74
2022/06/12 13:36:27;;;;;;;1.75;1.10;;;29.60;96.90;;;;;;4922272;29;20210;-75
2022/06/12 13:39:04;;;;;;;2.08;1.02;;;29.70;96.40;;;;;;4920296;29;20298;-73
2022/06/12 13:41:44;;;;;;;3.83;1.40;;;29.80;95.70;;;;;;4919587;29;20324;-74
2022/06/12 13:44:44;;;;;;;1.50;1.15;;;29.80;95.20;;;;;;4923044;29;20206;-73
2022/06/12 13:47:20;;;;;;;1.65;1.25;;;29.40;94.80;;;;;;4918017;29;20197;-75
2022/06/12 13:49:54;;;;;;;1.10;1.00;;;29.30;94.40;;;;;;4933167;29;20525;-74
2022/06/12 13:52:35;;;;;;;1.58;1.02;;;29.30;93.40;;;;;;4934396;29;20725;-73